Airfield :
LOGIN :

Register | Disclaimer

   EN    FR    IT 

 










Legend :    VFR   Marginal VFR   IFR   Intensive IFR   Very Intensive IFR
Visi :
Ceiling :
>= 8 km
>= 3000ft
5 to 8 km
1000 to 3000 ft
1500m to 5 km
500 to 1000 ft
800 to 1500m
200 to 500 ft
< 800m
< 200 ft
Symbols :   Thunderstorms  Fog  Heavy snow  Heavy precipitations  Wind > 20 kt
SIGMETs :     Misc.  Thunderstorms  Icing  Turbulence  Mountain Waves  Volcanic Ashes






- Airport Elevation : 125 ft
- IATA code : MGL


EDLN - Mönchengladbach

CURRENT METAR :
  • 051050Z 23009KT 150V260 CAVOK 26/09 Q1017

EXPIRED METARs :
  • 051020Z 21007KT 160V250 CAVOK 26/08 Q1017
  • 050950Z 23008KT 160V300 CAVOK 26/09 Q1017
  • 050920Z 23007KT 190V310 CAVOK 25/09 Q1017
  • 050850Z 25007KT 200V300 CAVOK 24/09 Q1017
  • 050820Z 19005KT 130V230 CAVOK 23/10 Q1017
  • 050750Z 17003KT 120V260 CAVOK 22/10 Q1017

TAF TAF EDLN
Valid from the 05 at 09:00 until the 05 at 18:00 UTC


050800Z 0509/0518 19005KT CAVOK
TEMPO 0512/0516 29006KT



MET'MAP, your aeronautical weather chart ! - Copyright ORBIFLY December 2007 - Disclaimer

ORBIFLY MET'MAP TEAM :

Programming & Development : Alexandra Zaïnal
Concept & original design : Baudouin d'Aumeries
Assistance for programming : Marc-Olivier Méhu
Technical & hardware support : Manuel Goepfert

Contact : metmap@orbifly.com




SOURCES & CREDITS :

   NOAA